Hovedside
METAR-TAF:

METAR-TAF

Lufthavner :

Curaçao, De nederlandske Antillene

Curaçao internasjonale lufthavn

breddegrad: 12-12N, lengdegrad: 068-58W, høyde over havet: 9 m

Gjeldene værobservasjon

Denne rapporten ble laget for 39 minutter siden, klokken 12:00 UTC
Vind 11 kt fra Øst-sørøst
Temperatur 28°C
Luftfuktighet 70%
Trykk 1014 hPa
Sikt 10 km eller mer
Spredte skyer i en høyde av 4800 ft

METAR: TNCC 241200Z AUTO 12011KT 9999 SCT048 28/22 Q1014 NOSIG

Tid: 08:39 (12:39 UTC)

Varsel

Varsel gyldig fra 24. klokken 12 UTC til 25. klokken 12 UTC
Vind 15 kt fra Øst
Sikt 10 km eller mer
Få skyer i en høyde av 2500 ft
Sannsynlighet 30% :
Midlertidig
fra 24. klokken 12 UTC til 24. klokken 16 UTC
Brutte skyer i en høyde av 2000 ft

TAF: TNCC 2412/2512 09015KT 9999 FEW025 PROB30 TEMPO 2412/2416 BKN020

Værobservasjoner og værvarsel for over 4000 flyplasser (METAR- og TAF-rapporter).

Tilgjengelige stasjoner er representert av de røde og gule prikkene på kartet.

Hold musepekeren over prikken for å se navnet på stasjonen.

Klikk så for å se værobservasjoner og -varsler.

For å forandre kartet kan du klikke på den grønne knappen med svart kryss for å zoome inn, på den grønne knappen med strek for å zoome ut, eller på de grønne pilene for å se tilstøtende kart.


METAR-TAF: